Time;durP1;ratioP1;P1;durP2;ratioP2;P2;SDS_P1;SDS_P2;PMS_P1;PMS_P2;Temp;Humidity;BMP_temperature;BMP_pressure;BME280_temperature;BME280_humidity;BME280_pressure;Samples;Min_cycle;Max_cycle;Signal;HPM_P1;HPM_P2
2021/08/24 00:02:16;;;;;;;6.72;2.92;;;;;;;14.38;88.14;101252.88;4957416;28;20377;-69
2021/08/24 00:04:41;;;;;;;5.13;2.85;;;;;;;14.40;88.23;101257.03;4961425;28;20035;-70
2021/08/24 00:07:07;;;;;;;3.90;2.72;;;;;;;14.35;89.33;101265.03;4974251;28;20403;-70
2021/08/24 00:09:33;;;;;;;5.32;4.20;;;;;;;14.34;89.87;101271.50;4954727;28;20034;-70
2021/08/24 00:12:00;;;;;;;7.10;4.50;;;;;;;14.29;90.50;101269.47;4967483;28;20067;-69
2021/08/24 00:14:25;;;;;;;5.55;4.13;;;;;;;14.22;92.04;101271.44;4968615;28;20077;-69
2021/08/24 00:16:51;;;;;;;7.00;4.20;;;;;;;14.18;93.01;101270.25;4956255;28;20110;-70
2021/08/24 00:19:17;;;;;;;10.27;4.90;;;;;;;14.20;92.89;101278.97;4956048;28;20031;-69
2021/08/24 00:21:43;;;;;;;12.07;4.70;;;;;;;14.11;93.25;101275.75;4958921;28;20606;-69
2021/08/24 00:24:11;;;;;;;9.85;4.22;;;;;;;14.07;93.89;101271.84;4965926;28;20529;-70
2021/08/24 00:26:36;;;;;;;7.32;4.07;;;;;;;14.06;94.70;101270.19;4955561;28;20480;-70
2021/08/24 00:29:02;;;;;;;11.02;4.57;;;;;;;13.99;95.31;101261.31;4955358;28;20043;-70
2021/08/24 00:31:28;;;;;;;12.45;4.63;;;;;;;14.02;95.74;101260.84;4955961;28;20051;-71
2021/08/24 00:33:55;;;;;;;7.97;4.00;;;;;;;13.97;95.23;101271.53;4960106;28;20034;-70
2021/08/24 00:36:20;;;;;;;5.25;4.30;;;;;;;13.96;95.43;101270.72;4964459;28;20039;-69
2021/08/24 00:38:47;;;;;;;11.20;4.43;;;;;;;13.96;96.01;101264.47;4958312;28;20031;-70
2021/08/24 00:41:15;;;;;;;6.63;4.10;;;;;;;13.87;95.94;101262.06;4956814;28;20043;-69
2021/08/24 00:43:43;;;;;;;7.25;3.65;;;;;;;13.83;96.06;101260.06;4957797;28;20058;-69
2021/08/24 00:46:11;;;;;;;5.82;3.53;;;;;;;13.82;96.14;101259.22;4956799;28;20509;-70
2021/08/24 00:48:36;;;;;;;6.68;3.50;;;;;;;13.83;96.26;101260.06;4957696;28;20118;-70
2021/08/24 00:51:02;;;;;;;3.97;3.17;;;;;;;13.80;97.20;101257.81;4955679;28;20544;-69
2021/08/24 00:53:32;;;;;;;6.13;3.05;;;;;;;13.75;96.54;101261.19;4957128;28;20563;-70
2021/08/24 00:56:00;;;;;;;7.10;3.13;;;;;;;13.78;96.96;101251.78;4958587;28;20511;-70
2021/08/24 00:58:25;;;;;;;5.20;2.90;;;;;;;13.82;97.28;101256.50;4964743;28;20038;-69
2021/08/24 01:00:51;;;;;;;5.97;2.47;;;;;;;13.74;96.83;101254.97;4970944;28;20050;-70
2021/08/24 01:03:20;;;;;;;5.13;2.33;;;;;;;13.76;97.43;101252.00;4957377;28;20035;-70
2021/08/24 01:05:51;;;;;;;2.92;2.13;;;;;;;13.75;96.80;101259.31;4957982;28;20047;-68
2021/08/24 01:08:31;;;;;;;3.83;2.00;;;;;;;13.75;96.37;101250.34;4956664;28;20031;-69
2021/08/24 01:11:07;;;;;;;3.10;2.20;;;;;;;13.70;96.51;101251.03;4966401;28;20046;-69
2021/08/24 01:13:54;;;;;;;2.80;1.77;;;;;;;13.66;96.40;101249.84;4952693;28;20099;-69
2021/08/24 01:16:33;;;;;;;3.47;2.40;;;;;;;13.67;97.15;101253.38;4955238;28;20062;-70
2021/08/24 01:19:10;;;;;;;5.30;2.00;;;;;;;13.67;96.66;101246.09;4955059;28;20066;-69
2021/08/24 01:21:47;;;;;;;7.30;2.65;;;;;;;13.68;96.84;101239.63;4955527;28;20067;-70
2021/08/24 01:24:32;;;;;;;4.15;2.33;;;;;;;13.68;97.54;101231.50;4965910;28;20073;-70
2021/08/24 01:27:00;;;;;;;3.60;2.30;;;;;;;13.64;97.63;101233.00;4965871;28;20050;-69
2021/08/24 01:30:01;;;;;;;5.75;2.60;;;;;;;13.58;97.89;101232.00;4954529;28;20047;-69
2021/08/24 01:32:36;;;;;;;4.53;2.40;;;;;;;13.67;97.84;101229.84;4961982;28;20428;-69
2021/08/24 01:35:17;;;;;;;5.70;2.75;;;;;;;13.60;97.84;101227.19;4959070;28;20385;-69
2021/08/24 01:38:10;;;;;;;6.57;2.75;;;;;;;13.65;98.21;101237.38;4955582;28;20034;-69
2021/08/24 01:40:44;;;;;;;7.60;2.83;;;;;;;13.58;98.59;101236.63;4958966;28;20147;-70
2021/08/24 01:43:18;;;;;;;4.68;2.70;;;;;;;13.58;99.04;101244.75;4972002;28;20035;-70
2021/08/24 01:45:55;;;;;;;7.03;2.72;;;;;;;13.54;98.99;101248.94;4967914;28;20044;-69
2021/08/24 01:48:44;;;;;;;5.28;2.80;;;;;;;13.46;99.14;101248.19;4980713;28;20154;-69
2021/08/24 01:51:18;;;;;;;7.32;3.47;;;;;;;13.45;99.35;101232.16;4954243;28;20043;-69
2021/08/24 01:53:57;;;;;;;4.55;3.00;;;;;;;13.40;100.00;101227.41;4954660;28;20054;-69
2021/08/24 01:56:28;;;;;;;5.35;3.20;;;;;;;13.44;98.99;101230.50;4954371;28;20051;-69
2021/08/24 01:59:02;;;;;;;6.28;3.50;;;;;;;13.39;99.21;101227.63;4954653;28;20085;-70
2021/08/24 02:01:36;;;;;;;6.15;3.70;;;;;;;13.43;99.14;101223.44;4960935;28;20132;-70
2021/08/24 02:04:08;;;;;;;7.20;3.75;;;;;;;13.36;98.83;101237.03;4969992;28;20035;-69
2021/08/24 02:06:41;;;;;;;5.32;3.65;;;;;;;13.41;98.95;101233.63;4961132;28;20201;-69
2021/08/24 02:09:13;;;;;;;7.65;3.63;;;;;;;13.43;99.15;101229.69;4958479;28;20146;-69
2021/08/24 02:11:39;;;;;;;12.35;3.70;;;;;;;13.45;97.92;101226.75;4954090;28;20028;-69
2021/08/24 02:14:09;;;;;;;4.65;3.00;;;;;;;13.52;96.03;101229.41;4946051;28;20559;-69
2021/08/24 02:16:36;;;;;;;5.05;2.47;;;;;;;13.50;96.36;101224.19;4953948;28;20046;-69
2021/08/24 02:19:08;;;;;;;3.97;2.80;;;;;;;13.54;96.32;101238.94;4965020;28;20075;-69
2021/08/24 02:21:40;;;;;;;3.60;2.38;;;;;;;13.57;96.68;101238.47;4971287;28;20049;-69
2021/08/24 02:24:11;;;;;;;4.80;2.78;;;;;;;13.58;96.32;101244.75;4972109;28;20057;-70
2021/08/24 02:26:38;;;;;;;8.27;3.00;;;;;;;13.56;96.19;101234.13;4956076;28;20388;-69
2021/08/24 02:29:04;;;;;;;3.22;2.33;;;;;;;13.60;96.14;101235.31;4953888;28;20031;-69
2021/08/24 02:31:49;;;;;;;6.68;2.75;;;;;;;13.65;96.18;101240.06;4966680;28;20388;-69
2021/08/24 02:34:32;;;;;;;4.65;2.80;;;;;;;13.61;96.51;101242.38;4962447;28;20472;-69
2021/08/24 02:37:22;;;;;;;7.55;3.20;;;;;;;13.60;96.27;101248.03;4955026;28;20046;-69
2021/08/24 02:39:57;;;;;;;5.25;2.85;;;;;;;13.60;96.76;101254.28;4953901;28;20472;-69
2021/08/24 02:42:28;;;;;;;4.75;2.63;;;;;;;13.66;96.67;101246.31;4960842;28;20109;-69
2021/08/24 02:45:07;;;;;;;6.85;3.20;;;;;;;13.66;96.83;101239.03;4971763;28;20086;-69
2021/08/24 02:47:34;;;;;;;5.80;3.10;;;;;;;13.66;96.99;101235.47;4953828;28;20453;-69
2021/08/24 02:50:01;;;;;;;5.45;3.67;;;;;;;13.57;97.54;101235.78;4967748;28;20468;-70
2021/08/24 02:52:27;;;;;;;4.20;3.13;;;;;;;13.58;97.54;101228.50;4957762;28;20110;-70
2021/08/24 02:54:53;;;;;;;15.00;3.30;;;;;;;13.52;97.35;101226.69;4957527;28;20601;-69
2021/08/24 02:57:19;;;;;;;7.43;3.50;;;;;;;13.46;97.78;101229.25;4955774;28;20114;-69
2021/08/24 02:59:45;;;;;;;5.53;3.67;;;;;;;13.42;98.41;101236.16;4965996;28;20146;-69
2021/08/24 03:02:12;;;;;;;7.55;3.50;;;;;;;13.46;98.13;101229.25;4960990;28;20040;-70
2021/08/24 03:04:38;;;;;;;6.35;3.55;;;;;;;13.41;98.47;101234.47;4957526;28;20042;-69
2021/08/24 03:07:12;;;;;;;6.38;3.58;;;;;;;13.40;99.11;101243.66;4969585;28;20474;-70
2021/08/24 03:09:40;;;;;;;;;;;;;;;13.40;99.30;101235.53;4960555;28;20042;-70
2021/08/24 03:12:32;;;;;;;11.50;4.05;;;;;;;13.36;99.49;101239.75;4974704;28;20002;-69
2021/08/24 03:15:24;;;;;;;7.25;4.00;;;;;;;13.36;99.92;101236.19;4957633;28;20102;-69
2021/08/24 03:18:01;;;;;;;9.35;5.07;;;;;;;13.40;99.87;101237.41;4956797;28;20051;-69
2021/08/24 03:20:43;;;;;;;6.93;4.50;;;;;;;13.44;100.00;101242.19;4956374;28;20460;-69
2021/08/24 03:23:11;;;;;;;7.50;4.88;;;;;;;13.41;99.78;101242.59;4970004;28;20479;-69
2021/08/24 03:25:40;;;;;;;10.02;5.25;;;;;;;13.38;100.00;101234.09;4957089;28;20047;-70
2021/08/24 03:28:12;;;;;;;9.32;5.32;;;;;;;13.38;100.00;101234.94;4958685;28;20043;-70
2021/08/24 03:30:37;;;;;;;8.18;5.43;;;;;;;13.35;100.00;101245.34;4974477;28;20042;-70
2021/08/24 03:33:03;;;;;;;10.40;6.25;;;;;;;13.29;100.00;101236.28;4966653;28;20400;-69
2021/08/24 03:35:29;;;;;;;9.23;6.32;;;;;;;13.36;100.00;101249.72;4962430;28;20401;-69
2021/08/24 03:37:55;;;;;;;15.32;6.60;;;;;;;13.33;100.00;101246.41;4968660;28;20241;-69
2021/08/24 03:40:20;;;;;;;10.77;5.75;;;;;;;13.29;100.00;101241.69;4964224;28;20035;-69
2021/08/24 03:42:46;;;;;;;10.65;5.10;;;;;;;13.21;100.00;101244.66;4972028;28;20596;-69
2021/08/24 03:45:12;;;;;;;9.32;4.68;;;;;;;13.16;100.00;101235.31;4958738;28;20043;-69
2021/08/24 03:47:38;;;;;;;10.90;5.55;;;;;;;13.18;100.00;101230.53;4956101;28;20031;-70
2021/08/24 03:50:06;;;;;;;9.00;5.63;;;;;;;13.17;100.00;101228.06;4962311;28;20037;-69
2021/08/24 03:52:32;;;;;;;8.85;5.15;;;;;;;13.22;100.00;101230.91;4964013;28;20042;-69
2021/08/24 03:54:57;;;;;;;12.40;5.00;;;;;;;13.16;100.00;101234.50;4955621;28;20031;-69
2021/08/24 03:57:23;;;;;;;10.23;5.45;;;;;;;13.14;100.00;101229.31;4956525;28;20058;-69
2021/08/24 03:59:52;;;;;;;14.00;5.90;;;;;;;13.12;100.00;101233.31;4964239;28;20141;-68
2021/08/24 04:02:18;;;;;;;10.23;6.15;;;;;;;13.12;100.00;101250.34;4957842;28;20378;-69
2021/08/24 04:04:44;;;;;;;23.45;7.28;;;;;;;13.11;100.00;101246.00;4957012;28;20138;-69
2021/08/24 04:07:09;;;;;;;12.13;6.75;;;;;;;13.11;100.00;101245.19;4968119;28;20136;-69
2021/08/24 04:09:34;;;;;;;11.57;6.97;;;;;;;13.18;100.00;101241.34;4952214;28;20062;-69
2021/08/24 04:12:00;;;;;;;9.45;6.60;;;;;;;13.14;100.00;101236.63;4973439;28;20528;-69
2021/08/24 04:14:25;;;;;;;8.43;5.95;;;;;;;13.16;100.00;101238.03;4972182;28;20038;-70
2021/08/24 04:16:51;;;;;;;13.05;6.13;;;;;;;13.18;100.00;101245.94;4955527;28;20121;-69
2021/08/24 04:19:16;;;;;;;12.02;6.30;;;;;;;13.16;100.00;101242.63;4955269;28;20105;-69
2021/08/24 04:21:42;;;;;;;9.05;6.72;;;;;;;13.15;100.00;101236.38;4959756;28;20429;-69
2021/08/24 04:24:10;;;;;;;11.20;6.60;;;;;;;13.11;100.00;101245.19;4963643;28;20046;-69
2021/08/24 04:26:36;;;;;;;12.60;6.10;;;;;;;13.10;100.00;101248.94;4956002;28;20053;-69
2021/08/24 04:29:03;;;;;;;11.38;6.72;;;;;;;13.15;100.00;101240.97;4955202;28;20271;-69
2021/08/24 04:31:30;;;;;;;10.40;7.07;;;;;;;13.09;100.00;101245.38;4956244;28;20365;-69
2021/08/24 04:33:58;;;;;;;12.30;7.25;;;;;;;13.11;100.00;101245.19;4966478;28;20067;-69
2021/08/24 04:36:24;;;;;;;11.20;7.95;;;;;;;13.10;100.00;101243.53;4955163;28;20395;-70
2021/08/24 04:38:50;;;;;;;15.60;9.95;;;;;;;13.03;100.00;101236.28;4955097;28;20472;-69
2021/08/24 04:41:16;;;;;;;17.92;10.70;;;;;;;13.08;100.00;101241.03;4962070;28;20041;-69
2021/08/24 04:43:41;;;;;;;17.58;11.63;;;;;;;13.05;100.00;101237.94;4968826;28;20431;-69
2021/08/24 04:46:07;;;;;;;17.52;12.50;;;;;;;13.04;100.00;101245.22;4973419;28;20440;-69
2021/08/24 04:48:32;;;;;;;28.25;14.52;;;;;;;13.02;100.00;101244.63;4959264;28;20479;-70
2021/08/24 04:50:59;;;;;;;27.13;15.13;;;;;;;12.99;100.00;101242.34;4972228;28;20034;-70
2021/08/24 04:53:25;;;;;;;22.65;13.88;;;;;;;12.99;100.00;101243.19;4958561;28;20116;-69
2021/08/24 04:55:52;;;;;;;24.70;15.38;;;;;;;12.99;100.00;101245.91;4955536;28;20036;-70
2021/08/24 04:58:18;;;;;;;21.83;16.35;;;;;;;13.03;100.00;101254.38;4956639;28;20164;-69
2021/08/24 05:00:43;;;;;;;26.38;18.23;;;;;;;13.02;100.00;101252.72;4956238;28;20140;-69
2021/08/24 05:03:09;;;;;;;24.52;18.55;;;;;;;12.98;100.00;101255.06;4965945;28;20051;-70
2021/08/24 05:05:35;;;;;;;22.42;12.82;;;;;;;12.96;100.00;101257.16;4957552;28;20093;-69
2021/08/24 05:08:00;;;;;;;19.85;14.38;;;;;;;12.99;100.00;101250.47;4957571;28;20039;-69
2021/08/24 05:10:26;;;;;;;18.67;13.55;;;;;;;12.99;100.00;101253.19;4965772;28;20046;-69
2021/08/24 05:12:51;;;;;;;17.77;11.25;;;;;;;13.01;100.00;101257.31;4969204;28;20035;-70
2021/08/24 05:15:17;;;;;;;17.75;11.93;;;;;;;12.99;100.00;101264.84;4963494;28;20063;-69
2021/08/24 05:17:43;;;;;;;14.27;9.18;;;;;;;13.03;100.00;101266.06;4970481;28;20113;-70
2021/08/24 05:20:09;;;;;;;18.30;9.65;;;;;;;13.00;100.00;101258.38;4954567;28;20035;-69
2021/08/24 05:22:36;;;;;;;15.57;9.88;;;;;;;12.99;100.00;101262.13;4955419;28;20043;-70
2021/08/24 05:25:02;;;;;;;15.77;8.88;;;;;;;12.94;100.00;101261.97;4954299;28;20051;-70
2021/08/24 05:27:28;;;;;;;13.32;8.93;;;;;;;12.95;100.00;101255.50;4954621;28;20042;-69
2021/08/24 05:29:53;;;;;;;11.18;8.18;;;;;;;12.99;100.00;101264.00;4954053;28;20035;-70
2021/08/24 05:32:19;;;;;;;15.30;8.55;;;;;;;13.05;100.00;101263.09;4952366;28;20050;-69
2021/08/24 05:34:44;;;;;;;11.02;7.70;;;;;;;13.04;100.00;101261.44;4953354;28;20039;-69
2021/08/24 05:37:10;;;;;;;11.90;7.78;;;;;;;13.02;100.00;101260.84;4957988;28;20039;-69
2021/08/24 05:39:36;;;;;;;17.65;8.07;;;;;;;12.98;100.00;101273.16;4960746;28;20043;-70
2021/08/24 05:42:03;;;;;;;11.68;7.13;;;;;;;13.06;100.00;101269.34;4963415;28;20039;-69
2021/08/24 05:44:29;;;;;;;16.20;7.95;;;;;;;13.00;100.00;101261.09;4952439;28;20031;-69
2021/08/24 05:46:55;;;;;;;11.77;7.68;;;;;;;13.08;100.00;101265.38;4953202;28;20038;-69
2021/08/24 05:49:21;;;;;;;16.70;8.20;;;;;;;13.13;100.00;101267.41;4952679;28;20035;-69
2021/08/24 05:51:47;;;;;;;14.77;7.63;;;;;;;13.08;100.00;101264.56;4935977;28;20152;-70
2021/08/24 05:54:13;;;;;;;10.93;7.00;;;;;;;13.13;100.00;101270.13;4952779;28;20040;-69
2021/08/24 05:56:42;;;;;;;9.43;6.20;;;;;;;13.12;100.00;101271.19;4951905;28;20046;-70
2021/08/24 05:59:07;;;;;;;11.77;6.20;;;;;;;13.13;100.00;101275.53;4958406;28;20045;-69
2021/08/24 06:01:33;;;;;;;9.73;5.50;;;;;;;13.15;100.00;101274.25;4959217;28;20039;-69
2021/08/24 06:04:00;;;;;;;12.18;5.80;;;;;;;13.21;99.93;101271.72;4952477;28;20575;-69
2021/08/24 06:06:34;;;;;;;9.57;5.18;;;;;;;13.29;99.05;101274.97;4962235;28;20038;-70
2021/08/24 06:09:00;;;;;;;8.80;5.07;;;;;;;13.28;98.79;101269.78;4954745;28;20036;-69
2021/08/24 06:11:29;;;;;;;12.35;6.10;;;;;;;13.31;98.74;101274.75;4964301;28;20046;-70
2021/08/24 06:13:56;;;;;;;10.10;4.10;;;;;;;13.33;98.18;101265.34;4962632;28;20031;-70
2021/08/24 06:16:22;;;;;;;6.00;4.43;;;;;;;13.40;98.52;101268.00;4969807;28;20034;-70
2021/08/24 06:18:48;;;;;;;6.57;3.72;;;;;;;13.45;97.59;101268.19;4961843;28;20058;-70
2021/08/24 06:21:14;;;;;;;6.45;3.47;;;;;;;13.56;97.66;101266.59;4953455;28;20035;-70
2021/08/24 06:23:40;;;;;;;7.05;4.00;;;;;;;13.58;97.41;101266.41;4965629;28;20066;-70
2021/08/24 06:26:05;;;;;;;7.18;3.55;;;;;;;13.65;97.56;101266.31;4955915;28;20083;-69
2021/08/24 06:28:31;;;;;;;6.60;3.72;;;;;;;13.71;96.24;101266.25;4956472;28;20031;-69
2021/08/24 06:30:58;;;;;;;3.47;2.78;;;;;;;13.76;95.19;101263.69;4956574;28;20411;-71
2021/08/24 06:33:29;;;;;;;4.75;2.50;;;;;;;13.79;95.63;101269.69;4956026;28;20034;-70
2021/08/24 06:35:55;;;;;;;4.97;3.00;;;;;;;13.81;96.20;101260.28;4956891;28;20086;-70
2021/08/24 06:38:21;;;;;;;8.43;3.00;;;;;;;13.95;95.43;101266.38;4956196;28;20031;-70
2021/08/24 06:40:47;;;;;;;8.15;3.15;;;;;;;13.99;94.44;101262.16;4974142;28;20513;-70
2021/08/24 06:43:15;;;;;;;5.90;2.45;;;;;;;14.00;93.80;101265.66;4967514;28;20117;-70
2021/08/24 06:45:40;;;;;;;3.40;2.53;;;;;;;13.93;94.33;101259.50;4956547;28;20042;-69
2021/08/24 06:48:06;;;;;;;11.10;3.10;;;;;;;14.05;93.94;101260.41;4955943;28;20031;-69
2021/08/24 06:50:32;;;;;;;3.33;2.55;;;;;;;14.08;92.29;101256.41;4961756;28;20399;-71
2021/08/24 06:52:58;;;;;;;4.97;2.40;;;;;;;14.07;92.31;101254.75;4962663;28;20050;-70
2021/08/24 06:55:25;;;;;;;4.93;2.17;;;;;;;14.02;92.24;101258.16;4959719;28;20027;-69
2021/08/24 06:57:52;;;;;;;8.50;2.55;;;;;;;14.03;92.85;101257.94;4964688;28;20460;-69
2021/08/24 07:00:21;;;;;;;6.38;2.35;;;;;;;14.03;93.81;101257.09;4967439;28;20035;-69
2021/08/24 07:02:48;;;;;;;4.93;2.35;;;;;;;14.12;92.80;101257.63;4968507;28;20043;-69
2021/08/24 07:05:15;;;;;;;4.63;2.67;;;;;;;14.25;91.25;101267.47;4956152;28;20063;-70
2021/08/24 07:07:41;;;;;;;6.63;2.10;;;;;;;14.27;90.46;101265.34;4970358;28;20075;-70
2021/08/24 07:10:08;;;;;;;4.57;2.60;;;;;;;14.28;91.32;101278.66;4973061;28;20039;-70
2021/08/24 07:12:34;;;;;;;4.50;2.28;;;;;;;14.32;91.12;101268.19;4972634;28;20034;-70
2021/08/24 07:14:59;;;;;;;2.63;1.73;;;;;;;14.39;91.09;101263.50;4967917;28;20563;-69
2021/08/24 07:17:25;;;;;;;4.93;1.40;;;;;;;14.46;88.50;101266.09;4954915;28;20468;-70
2021/08/24 07:19:51;;;;;;;3.78;1.30;;;;;;;14.44;88.86;101266.34;4971804;28;20038;-69
2021/08/24 07:22:17;;;;;;;2.15;1.20;;;;;;;14.54;88.90;101270.38;4973979;28;20154;-70
2021/08/24 07:24:43;;;;;;;1.73;1.05;;;;;;;14.67;87.70;101272.03;4957162;28;20058;-69
2021/08/24 07:27:08;;;;;;;2.58;1.35;;;;;;;14.70;88.64;101271.63;4955739;28;20114;-69
2021/08/24 07:29:34;;;;;;;1.02;0.80;;;;;;;14.70;86.42;101271.63;4965882;28;20400;-70
2021/08/24 07:32:00;;;;;;;2.03;1.10;;;;;;;14.60;88.05;101277.59;4955601;28;20035;-69
2021/08/24 07:34:26;;;;;;;4.95;1.30;;;;;;;14.71;88.34;101279.53;4967169;28;20051;-69
2021/08/24 07:36:52;;;;;;;4.72;1.35;;;;;;;14.60;88.70;101278.41;4954938;28;20027;-69
2021/08/24 07:39:18;;;;;;;4.35;1.30;;;;;;;14.46;88.24;101287.78;4955099;28;20122;-69
2021/08/24 07:41:44;;;;;;;1.38;1.00;;;;;;;14.64;88.43;101286.91;4968718;28;20234;-70
2021/08/24 07:44:09;;;;;;;3.08;1.20;;;;;;;14.62;87.48;101286.31;4973442;28;20110;-69
2021/08/24 07:46:35;;;;;;;6.25;1.38;;;;;;;14.56;88.21;101289.94;4954842;28;20121;-70
2021/08/24 07:49:01;;;;;;;1.40;1.30;;;;;;;14.53;87.75;101290.41;4955027;28;20035;-70
2021/08/24 07:51:27;;;;;;;1.50;1.40;;;;;;;14.53;88.73;101293.13;4955676;28;20047;-70
2021/08/24 07:53:52;;;;;;;4.50;1.90;;;;;;;14.56;88.75;101290.75;4954904;28;20066;-69
2021/08/24 07:56:20;;;;;;;8.20;2.33;;;;;;;14.55;88.26;101291.81;4954402;28;20111;-70
2021/08/24 07:58:45;;;;;;;11.80;2.70;;;;;;;14.61;88.36;101293.59;4968877;28;21576;-69
2021/08/24 08:01:10;;;;;;;6.35;2.85;;;;;;;14.57;88.52;101300.56;4964639;28;20548;-69
2021/08/24 08:03:36;;;;;;;4.93;1.95;;;;;;;14.65;87.63;101302.13;4954237;28;20416;-70
2021/08/24 08:06:02;;;;;;;3.83;2.28;;;;;;;14.51;88.26;101306.91;4966201;28;20531;-69
2021/08/24 08:08:27;;;;;;;3.78;2.03;;;;;;;14.49;89.16;101309.84;4965974;28;20451;-69
2021/08/24 08:10:56;;;;;;;5.60;2.17;;;;;;;14.66;88.78;101311.91;4970778;28;20489;-69
2021/08/24 08:13:24;;;;;;;4.57;2.15;;;;;;;14.69;89.48;101313.31;4954599;28;20492;-69
2021/08/24 08:15:50;;;;;;;6.82;2.40;;;;;;;14.74;89.15;101313.47;4954158;28;20038;-70
2021/08/24 08:18:15;;;;;;;4.22;2.42;;;;;;;14.77;88.29;101315.72;4954450;28;20028;-69
2021/08/24 08:20:44;;;;;;;6.95;2.13;;;;;;;14.83;87.96;101319.41;4964363;28;20042;-69
2021/08/24 08:23:12;;;;;;;4.45;2.30;;;;;;;14.78;88.43;101323.66;4971951;28;20039;-70
2021/08/24 08:25:38;;;;;;;8.27;2.70;;;;;;;14.76;88.57;101324.91;4972466;28;20181;-70
2021/08/24 08:28:04;;;;;;;13.77;3.00;;;;;;;14.65;87.84;101329.25;4958386;28;20118;-69
2021/08/24 08:30:30;;;;;;;6.68;3.47;;;;;;;14.55;88.66;101332.50;4954434;28;20473;-69
2021/08/24 08:32:57;;;;;;;8.50;3.75;;;;;;;14.54;88.77;101324.59;4954181;28;20373;-69
2021/08/24 08:35:23;;;;;;;9.38;3.78;;;;;;;14.78;88.54;101325.53;4954162;28;20027;-69
2021/08/24 08:37:49;;;;;;;9.57;4.97;;;;;;;14.96;88.17;101338.19;4954068;28;20047;-69
2021/08/24 08:40:20;;;;;;;8.30;5.75;;;;;;;14.99;86.64;101329.59;4965721;28;20525;-69
2021/08/24 08:43:12;;;;;;;15.95;6.13;;;;;;;14.96;86.58;101329.22;4970217;28;20031;-69
2021/08/24 08:45:49;;;;;;;14.18;6.70;;;;;;;14.98;87.42;101327.09;4954134;28;20491;-70
2021/08/24 08:48:49;;;;;;;11.88;6.32;;;;;;;15.08;87.20;101328.19;4953255;28;20043;-69
2021/08/24 08:51:44;;;;;;;15.27;7.70;;;;;;;15.17;86.64;101325.97;4953726;28;20309;-69
2021/08/24 08:54:26;;;;;;;13.15;7.43;;;;;;;15.27;86.60;101324.56;4968390;28;20034;-70
2021/08/24 08:57:01;;;;;;;14.98;7.70;;;;;;;15.35;86.85;101329.63;4955956;28;20046;-69
2021/08/24 08:59:35;;;;;;;13.00;6.88;;;;;;;15.43;84.71;101325.72;4962768;28;20035;-69
2021/08/24 09:02:34;;;;;;;10.98;6.65;;;;;;;15.57;84.21;101323.63;4965694;28;20179;-70
2021/08/24 09:05:03;;;;;;;13.80;6.20;;;;;;;15.81;84.18;101319.81;4959995;28;20053;-70
2021/08/24 09:07:56;;;;;;;8.38;5.47;;;;;;;15.64;83.42;101321.59;4960120;28;20088;-70
2021/08/24 09:10:42;;;;;;;11.50;5.80;;;;;;;15.76;83.15;101321.56;4962574;28;20050;-70
2021/08/24 09:13:32;;;;;;;7.95;5.20;;;;;;;15.69;84.28;101315.44;4953042;28;20063;-70
2021/08/24 09:16:43;;;;;;;6.00;4.10;;;;;;;15.76;82.52;101321.56;4953656;28;20053;-70
2021/08/24 09:19:22;;;;;;;12.48;4.55;;;;;;;15.79;83.13;101319.22;4964319;28;20042;-69
2021/08/24 09:21:48;;;;;;;13.25;4.80;;;;;;;15.80;82.82;101323.59;4953058;28;20075;-70
2021/08/24 09:24:15;;;;;;;9.55;4.50;;;;;;;15.63;83.39;101323.47;4953359;28;20066;-70
2021/08/24 09:26:50;;;;;;;8.32;4.55;;;;;;;15.76;83.50;101324.28;4953235;28;20218;-70
2021/08/24 09:29:18;;;;;;;17.13;5.43;;;;;;;15.85;83.55;101331.00;4953175;28;20144;-69
2021/08/24 09:31:46;;;;;;;14.38;5.10;;;;;;;16.00;82.89;101329.72;4953522;28;20035;-70
2021/08/24 09:34:16;;;;;;;12.32;4.95;;;;;;;15.85;82.27;101327.47;4961035;28;20031;-69
2021/08/24 09:36:42;;;;;;;10.18;5.07;;;;;;;16.01;81.85;101326.75;4956885;28;20027;-69
2021/08/24 09:39:08;;;;;;;16.75;5.30;;;;;;;15.80;83.07;101329.00;4959468;28;20049;-69
2021/08/24 09:41:36;;;;;;;12.73;4.95;;;;;;;16.01;82.74;101326.75;4967097;28;20126;-69
2021/08/24 09:44:19;;;;;;;13.02;5.28;;;;;;;16.02;82.38;101325.69;4970916;28;20035;-70
2021/08/24 09:46:45;;;;;;;8.80;5.30;;;;;;;16.00;82.10;101319.66;4957617;28;20038;-69
2021/08/24 09:49:20;;;;;;;8.80;4.97;;;;;;;16.37;82.39;101321.22;4969893;28;20093;-69
2021/08/24 09:51:53;;;;;;;8.60;5.57;;;;;;;16.26;81.10;101314.75;4957792;28;20045;-69
2021/08/24 09:54:28;;;;;;;;;;;;;;;16.11;80.51;101318.00;4971221;28;20027;-69
2021/08/24 09:56:59;;;;;;;8.07;4.97;;;;;;;16.09;81.19;101312.78;4956505;28;19918;-69
2021/08/24 09:59:35;;;;;;;8.70;4.72;;;;;;;16.05;80.95;101317.06;4952719;28;20035;-69
2021/08/24 10:02:03;;;;;;;11.77;4.65;;;;;;;16.33;80.30;101315.44;4952327;28;20086;-70
2021/08/24 10:04:28;;;;;;;9.50;5.75;;;;;;;16.49;80.35;101313.00;4951790;28;20055;-69
2021/08/24 10:07:06;;;;;;;9.45;5.68;;;;;;;16.36;80.95;101309.50;4952523;28;20078;-69
2021/08/24 10:09:40;;;;;;;13.48;5.88;;;;;;;16.46;80.74;101314.31;4954825;28;20039;-70
2021/08/24 10:12:20;;;;;;;12.35;5.47;;;;;;;16.56;80.37;101321.00;4969793;28;20043;-69
2021/08/24 10:14:52;;;;;;;11.10;4.97;;;;;;;16.83;79.20;101311.16;4965855;28;20411;-70
2021/08/24 10:17:36;;;;;;;9.27;4.47;;;;;;;16.45;78.00;101318.09;4962208;28;20094;-69
2021/08/24 10:20:20;;;;;;;9.15;4.07;;;;;;;16.62;78.43;101312.69;4956575;28;20035;-69
2021/08/24 10:22:50;;;;;;;10.15;4.18;;;;;;;16.52;79.00;101316.06;4957776;28;20511;-70
2021/08/24 10:25:26;;;;;;;8.50;3.45;;;;;;;16.87;77.23;101297.06;4958268;28;20129;-70
2021/08/24 10:28:18;;;;;;;8.68;3.10;;;;;;;16.73;77.83;101305.53;4970586;28;20051;-69
2021/08/24 10:30:46;;;;;;;12.15;3.95;;;;;;;16.74;78.24;101311.78;4952442;28;20559;-69
2021/08/24 10:33:39;;;;;;;11.05;4.68;;;;;;;16.54;79.14;101310.38;4965248;28;20492;-69
2021/08/24 10:36:13;;;;;;;11.20;4.28;;;;;;;16.60;79.65;101314.00;4961180;28;20043;-70
2021/08/24 10:38:56;;;;;;;8.32;3.75;;;;;;;16.68;78.56;101308.19;4965964;28;20031;-69
2021/08/24 10:41:33;;;;;;;7.07;2.90;;;;;;;16.89;77.35;101308.53;4961979;28;20242;-69
2021/08/24 10:44:07;;;;;;;6.13;2.83;;;;;;;16.84;77.08;101303.84;4967674;28;20163;-70
2021/08/24 10:46:49;;;;;;;5.82;2.80;;;;;;;16.85;76.61;101301.94;4955433;28;20039;-70
2021/08/24 10:49:14;;;;;;;8.82;2.90;;;;;;;16.81;76.77;101298.88;4953292;28;20106;-69
2021/08/24 10:51:50;;;;;;;3.75;3.08;;;;;;;16.74;77.68;101300.91;4965270;28;20575;-69
2021/08/24 10:54:36;;;;;;;5.13;3.13;;;;;;;16.77;75.66;101303.16;4961258;28;20107;-69
2021/08/24 10:57:24;;;;;;;6.72;2.95;;;;;;;16.73;77.24;101296.53;4934871;28;20106;-70
2021/08/24 11:00:01;;;;;;;6.35;3.30;;;;;;;16.59;76.89;101299.56;4951765;28;20034;-69
2021/08/24 11:03:04;;;;;;;6.00;3.15;;;;;;;16.45;78.27;101296.34;4952418;28;20039;-70
2021/08/24 11:05:51;;;;;;;9.88;3.22;;;;;;;16.59;77.85;101280.53;4964267;28;20041;-69
2021/08/24 11:08:30;;;;;;;6.88;3.20;;;;;;;16.54;77.86;101288.59;4951217;28;20484;-69
2021/08/24 11:11:15;;;;;;;6.20;3.13;;;;;;;16.53;77.88;101289.69;4966935;28;20050;-69
2021/08/24 11:14:09;;;;;;;4.13;2.80;;;;;;;16.46;78.82;101289.84;4964914;28;20034;-69
2021/08/24 11:16:54;;;;;;;4.05;3.10;;;;;;;16.51;79.56;101289.09;4955109;28;20032;-69
2021/08/24 11:19:31;;;;;;;6.95;3.28;;;;;;;16.48;79.13;101290.44;4968124;28;20038;-70
2021/08/24 11:22:43;;;;;;;9.75;3.53;;;;;;;16.41;79.76;101287.03;4955683;28;20808;-70
2021/08/24 11:25:34;;;;;;;5.75;3.53;;;;;;;16.39;79.38;101284.53;4875680;29;20044;-69
2021/08/24 11:28:15;;;;;;;5.93;3.33;;;;;;;16.46;80.64;101286.28;4875413;29;20045;-69
2021/08/24 11:30:52;;;;;;;15.13;4.10;;;;;;;16.70;79.65;101284.28;4876165;29;20083;-70
2021/08/24 11:33:41;;;;;;;5.97;3.90;;;;;;;16.89;78.66;101284.88;4875606;29;20132;-70
2021/08/24 11:36:16;;;;;;;5.32;4.13;;;;;;;17.01;76.65;101278.56;4876035;29;20053;-71
2021/08/24 11:38:44;;;;;;;8.48;4.05;;;;;;;17.03;76.52;101276.41;4875169;29;20072;-70